Accueil
METAR-TAF:

METAR-TAF

Aéroports :

Yeovilton, Angleterre

latitude: 51-00N, longitude: 002-38W, altitude: 23 m

Observation

Le bulletin a été fait il y a 1 heure et 18 minutes, à 10:50 UTC
Vent 2 kt de sud-est
Température 19°C
Humidité 68%
Pression 1006 hPa
Visibilité 10 km ou plus

METAR: EGDY 271050Z AUTO 14002KT 9999 FEW030/// BKN038/// 19/13 Q1006

Heure: 13:08 (12:08 UTC)

Prévision

Le bulletin a été fait il y a 1 heure et 30 minutes, à 10:38 UTC
Prévision valable du 27 à 12 UTC au 27 à 21 UTC
Vent 3 kt de sud-est
Visibilité 10 km ou plus
Nuages fragmentés à une hauteur de 4000 ft
Temporairement
du 27 à 13 UTC au 27 à 21 UTC
Visibilité: 6000 m
Nuages épars à une hauteur de 2000 ft, Cumulus congestus.
averses de pluie

TAF: EGDY 271038Z 2712/2721 13003KT 9999 BKN040 TEMPO 2713/2721 6000 SHRA SCT020TCU

Observations et prévisions météorologiques de plus de 4000 aéroports (messages METAR et TAF).

Les stations disponibles sont représentées par des disques jaunes et rouges sur la carte.

Passer la souris dessus pour voir le nom de la station.

Cliquer dessus pour voir les observations et prévisions météorologiques.

Pour changer de carte: cliquez sur les boutons verts avec une croix noire pour zoomer, sur le bouton vert avec un tiret pour effectuer un zoom arrière, ou sur les flèches vertes pour les cartes adjacentes.


METAR-TAF: